sensor_id;sensor_type;location;lat;lon;timestamp;temperature;humidity
70947;DHT22;58605;48.700;8.760;2023-04-24T00:00:33;12.80;94.40
70947;DHT22;58605;48.700;8.760;2023-04-24T00:02:59;13.00;94.00
70947;DHT22;58605;48.700;8.760;2023-04-24T00:05:26;13.10;93.50
70947;DHT22;58605;48.700;8.760;2023-04-24T00:07:52;13.10;93.40
70947;DHT22;58605;48.700;8.760;2023-04-24T00:10:18;13.00;93.60
70947;DHT22;58605;48.700;8.760;2023-04-24T00:12:44;12.90;93.60
70947;DHT22;58605;48.700;8.760;2023-04-24T00:15:12;12.80;93.60
70947;DHT22;58605;48.700;8.760;2023-04-24T00:17:38;12.90;93.50
70947;DHT22;58605;48.700;8.760;2023-04-24T00:20:06;12.80;93.60
70947;DHT22;58605;48.700;8.760;2023-04-24T00:22:34;12.90;93.70
70947;DHT22;58605;48.700;8.760;2023-04-24T00:24:59;13.00;93.80
70947;DHT22;58605;48.700;8.760;2023-04-24T00:27:25;13.00;93.20
70947;DHT22;58605;48.700;8.760;2023-04-24T00:29:51;13.00;93.60
70947;DHT22;58605;48.700;8.760;2023-04-24T00:32:17;12.90;93.70
70947;DHT22;58605;48.700;8.760;2023-04-24T00:34:43;13.00;92.90
70947;DHT22;58605;48.700;8.760;2023-04-24T00:37:09;12.90;93.10
70947;DHT22;58605;48.700;8.760;2023-04-24T00:39:38;13.00;92.70
70947;DHT22;58605;48.700;8.760;2023-04-24T00:42:04;12.90;93.10
70947;DHT22;58605;48.700;8.760;2023-04-24T00:44:32;12.90;93.40
70947;DHT22;58605;48.700;8.760;2023-04-24T00:46:59;12.70;93.80
70947;DHT22;58605;48.700;8.760;2023-04-24T00:49:25;12.80;93.80
70947;DHT22;58605;48.700;8.760;2023-04-24T00:51:51;12.90;93.50
70947;DHT22;58605;48.700;8.760;2023-04-24T00:54:17;12.70;94.10
70947;DHT22;58605;48.700;8.760;2023-04-24T00:56:45;12.70;94.20
70947;DHT22;58605;48.700;8.760;2023-04-24T00:59:11;12.80;93.90
70947;DHT22;58605;48.700;8.760;2023-04-24T01:01:38;12.70;94.10
70947;DHT22;58605;48.700;8.760;2023-04-24T01:04:07;12.70;94.40
70947;DHT22;58605;48.700;8.760;2023-04-24T01:06:37;12.60;94.70
70947;DHT22;58605;48.700;8.760;2023-04-24T01:09:04;12.60;94.80
70947;DHT22;58605;48.700;8.760;2023-04-24T01:11:30;12.60;95.10
70947;DHT22;58605;48.700;8.760;2023-04-24T01:13:58;12.70;94.80
70947;DHT22;58605;48.700;8.760;2023-04-24T01:16:24;12.80;94.70
70947;DHT22;58605;48.700;8.760;2023-04-24T01:18:50;12.90;94.20
70947;DHT22;58605;48.700;8.760;2023-04-24T01:21:18;13.00;94.10
70947;DHT22;58605;48.700;8.760;2023-04-24T01:23:45;13.00;93.80
70947;DHT22;58605;48.700;8.760;2023-04-24T01:26:12;13.00;93.60
70947;DHT22;58605;48.700;8.760;2023-04-24T01:28:38;13.00;93.80
70947;DHT22;58605;48.700;8.760;2023-04-24T01:31:04;13.00;93.80
70947;DHT22;58605;48.700;8.760;2023-04-24T01:33:31;13.00;93.50
70947;DHT22;58605;48.700;8.760;2023-04-24T01:35:57;13.00;93.70
70947;DHT22;58605;48.700;8.760;2023-04-24T01:38:23;13.00;93.90
70947;DHT22;58605;48.700;8.760;2023-04-24T01:40:51;12.90;94.00
70947;DHT22;58605;48.700;8.760;2023-04-24T01:43:17;12.90;93.80
70947;DHT22;58605;48.700;8.760;2023-04-24T01:45:44;12.80;93.90
70947;DHT22;58605;48.700;8.760;2023-04-24T01:48:11;12.70;94.70
70947;DHT22;58605;48.700;8.760;2023-04-24T01:50:37;12.70;94.70
70947;DHT22;58605;48.700;8.760;2023-04-24T01:53:03;12.70;94.40
70947;DHT22;58605;48.700;8.760;2023-04-24T01:55:29;12.60;95.00
70947;DHT22;58605;48.700;8.760;2023-04-24T01:57:57;12.50;95.40
70947;DHT22;58605;48.700;8.760;2023-04-24T02:00:23;12.60;95.00
70947;DHT22;58605;48.700;8.760;2023-04-24T02:02:50;12.60;94.70
70947;DHT22;58605;48.700;8.760;2023-04-24T02:05:16;12.60;95.50
70947;DHT22;58605;48.700;8.760;2023-04-24T02:07:42;12.60;95.20
70947;DHT22;58605;48.700;8.760;2023-04-24T02:10:09;12.70;94.70
70947;DHT22;58605;48.700;8.760;2023-04-24T02:12:35;12.50;95.70
70947;DHT22;58605;48.700;8.760;2023-04-24T02:15:03;12.60;95.90
70947;DHT22;58605;48.700;8.760;2023-04-24T02:17:30;12.60;95.80
70947;DHT22;58605;48.700;8.760;2023-04-24T02:19:56;12.80;95.50
70947;DHT22;58605;48.700;8.760;2023-04-24T02:22:22;12.80;95.30
70947;DHT22;58605;48.700;8.760;2023-04-24T02:24:48;12.90;95.00
70947;DHT22;58605;48.700;8.760;2023-04-24T02:27:14;13.00;94.60
70947;DHT22;58605;48.700;8.760;2023-04-24T02:29:40;12.80;94.70
70947;DHT22;58605;48.700;8.760;2023-04-24T02:32:08;12.90;95.00
70947;DHT22;58605;48.700;8.760;2023-04-24T02:34:37;12.90;95.20
70947;DHT22;58605;48.700;8.760;2023-04-24T02:37:03;12.80;95.30
70947;DHT22;58605;48.700;8.760;2023-04-24T02:39:29;12.70;95.10
70947;DHT22;58605;48.700;8.760;2023-04-24T02:41:55;12.70;95.40
70947;DHT22;58605;48.700;8.760;2023-04-24T02:44:21;12.50;96.20
70947;DHT22;58605;48.700;8.760;2023-04-24T02:46:48;12.50;96.20
70947;DHT22;58605;48.700;8.760;2023-04-24T02:49:15;12.50;96.80
70947;DHT22;58605;48.700;8.760;2023-04-24T02:51:41;12.40;96.10
70947;DHT22;58605;48.700;8.760;2023-04-24T02:54:08;12.20;96.10
70947;DHT22;58605;48.700;8.760;2023-04-24T02:56:35;12.20;96.40
70947;DHT22;58605;48.700;8.760;2023-04-24T02:59:01;12.10;97.00
70947;DHT22;58605;48.700;8.760;2023-04-24T03:01:27;12.10;96.70
70947;DHT22;58605;48.700;8.760;2023-04-24T03:03:53;12.10;97.60
70947;DHT22;58605;48.700;8.760;2023-04-24T03:06:20;12.20;98.10
70947;DHT22;58605;48.700;8.760;2023-04-24T03:08:47;12.20;98.60
70947;DHT22;58605;48.700;8.760;2023-04-24T03:11:13;12.20;98.70
70947;DHT22;58605;48.700;8.760;2023-04-24T03:13:39;12.20;99.00
70947;DHT22;58605;48.700;8.760;2023-04-24T03:16:05;12.30;98.70
70947;DHT22;58605;48.700;8.760;2023-04-24T03:18:31;12.40;98.40
70947;DHT22;58605;48.700;8.760;2023-04-24T03:20:57;12.50;98.40
70947;DHT22;58605;48.700;8.760;2023-04-24T03:23:24;12.60;96.70
70947;DHT22;58605;48.700;8.760;2023-04-24T03:25:50;12.70;96.50
70947;DHT22;58605;48.700;8.760;2023-04-24T03:28:16;12.80;96.30
70947;DHT22;58605;48.700;8.760;2023-04-24T03:30:42;12.70;95.90
70947;DHT22;58605;48.700;8.760;2023-04-24T03:33:08;12.70;95.80
70947;DHT22;58605;48.700;8.760;2023-04-24T03:35:35;12.60;96.50
70947;DHT22;58605;48.700;8.760;2023-04-24T03:38:01;12.70;96.20
70947;DHT22;58605;48.700;8.760;2023-04-24T03:40:31;12.70;95.40
70947;DHT22;58605;48.700;8.760;2023-04-24T03:42:59;12.70;95.10
70947;DHT22;58605;48.700;8.760;2023-04-24T03:45:25;12.60;94.90
70947;DHT22;58605;48.700;8.760;2023-04-24T03:47:51;12.60;95.50
70947;DHT22;58605;48.700;8.760;2023-04-24T03:50:17;12.60;96.30
70947;DHT22;58605;48.700;8.760;2023-04-24T03:52:42;12.60;96.00
70947;DHT22;58605;48.700;8.760;2023-04-24T03:55:09;12.60;95.90
70947;DHT22;58605;48.700;8.760;2023-04-24T03:57:40;12.60;95.50
70947;DHT22;58605;48.700;8.760;2023-04-24T04:00:07;12.20;96.30
70947;DHT22;58605;48.700;8.760;2023-04-24T04:02:34;11.90;97.90
70947;DHT22;58605;48.700;8.760;2023-04-24T04:05:00;11.40;99.90
70947;DHT22;58605;48.700;8.760;2023-04-24T04:07:26;11.30;99.90
70947;DHT22;58605;48.700;8.760;2023-04-24T04:09:52;11.20;99.90
70947;DHT22;58605;48.700;8.760;2023-04-24T04:12:18;11.10;99.80
70947;DHT22;58605;48.700;8.760;2023-04-24T04:14:46;11.00;99.40
70947;DHT22;58605;48.700;8.760;2023-04-24T04:17:11;10.80;98.20
70947;DHT22;58605;48.700;8.760;2023-04-24T04:19:37;10.70;97.90
70947;DHT22;58605;48.700;8.760;2023-04-24T04:22:03;10.50;98.00
70947;DHT22;58605;48.700;8.760;2023-04-24T04:24:29;10.30;98.20
70947;DHT22;58605;48.700;8.760;2023-04-24T04:26:55;10.20;98.50
70947;DHT22;58605;48.700;8.760;2023-04-24T04:29:23;10.10;99.40
70947;DHT22;58605;48.700;8.760;2023-04-24T04:31:51;10.00;99.60
70947;DHT22;58605;48.700;8.760;2023-04-24T04:34:18;10.00;99.90
70947;DHT22;58605;48.700;8.760;2023-04-24T04:36:44;10.10;99.90
70947;DHT22;58605;48.700;8.760;2023-04-24T04:39:12;10.10;99.90
70947;DHT22;58605;48.700;8.760;2023-04-24T04:41:40;10.00;99.90
70947;DHT22;58605;48.700;8.760;2023-04-24T04:44:06;9.90;99.90
70947;DHT22;58605;48.700;8.760;2023-04-24T04:46:34;9.80;99.90
70947;DHT22;58605;48.700;8.760;2023-04-24T04:49:08;9.60;99.90
70947;DHT22;58605;48.700;8.760;2023-04-24T04:51:34;9.60;99.90
70947;DHT22;58605;48.700;8.760;2023-04-24T04:54:00;9.50;99.90
70947;DHT22;58605;48.700;8.760;2023-04-24T04:56:26;9.40;99.90
70947;DHT22;58605;48.700;8.760;2023-04-24T04:58:52;9.40;99.90
70947;DHT22;58605;48.700;8.760;2023-04-24T05:01:19;9.50;99.90
70947;DHT22;58605;48.700;8.760;2023-04-24T05:03:45;9.60;99.90
70947;DHT22;58605;48.700;8.760;2023-04-24T05:06:12;9.70;99.90
70947;DHT22;58605;48.700;8.760;2023-04-24T05:08:38;10.00;99.90
70947;DHT22;58605;48.700;8.760;2023-04-24T05:11:04;10.30;99.90
70947;DHT22;58605;48.700;8.760;2023-04-24T05:13:30;10.50;99.90
70947;DHT22;58605;48.700;8.760;2023-04-24T05:15:57;10.50;99.90
70947;DHT22;58605;48.700;8.760;2023-04-24T05:18:23;10.50;99.90
70947;DHT22;58605;48.700;8.760;2023-04-24T05:20:56;10.40;99.60
70947;DHT22;58605;48.700;8.760;2023-04-24T05:23:23;10.50;99.80
70947;DHT22;58605;48.700;8.760;2023-04-24T05:25:49;10.50;99.90
70947;DHT22;58605;48.700;8.760;2023-04-24T05:28:15;10.60;99.70
70947;DHT22;58605;48.700;8.760;2023-04-24T05:30:41;10.80;99.90
70947;DHT22;58605;48.700;8.760;2023-04-24T05:33:07;10.90;99.30
70947;DHT22;58605;48.700;8.760;2023-04-24T05:35:34;11.10;98.80
70947;DHT22;58605;48.700;8.760;2023-04-24T05:38:00;11.10;96.90
70947;DHT22;58605;48.700;8.760;2023-04-24T05:40:28;11.10;96.00
70947;DHT22;58605;48.700;8.760;2023-04-24T05:42:54;11.10;97.20
70947;DHT22;58605;48.700;8.760;2023-04-24T05:45:20;11.20;96.30
70947;DHT22;58605;48.700;8.760;2023-04-24T05:47:46;11.30;96.90
70947;DHT22;58605;48.700;8.760;2023-04-24T05:50:13;11.40;96.10
70947;DHT22;58605;48.700;8.760;2023-04-24T05:52:39;11.40;95.00
70947;DHT22;58605;48.700;8.760;2023-04-24T05:55:06;11.50;94.40
70947;DHT22;58605;48.700;8.760;2023-04-24T05:57:34;11.40;93.60
70947;DHT22;58605;48.700;8.760;2023-04-24T06:00:00;11.10;93.20
70947;DHT22;58605;48.700;8.760;2023-04-24T06:02:26;11.00;94.30
70947;DHT22;58605;48.700;8.760;2023-04-24T06:04:53;10.90;93.90
70947;DHT22;58605;48.700;8.760;2023-04-24T06:07:19;10.90;94.80
70947;DHT22;58605;48.700;8.760;2023-04-24T06:09:46;10.90;95.70
70947;DHT22;58605;48.700;8.760;2023-04-24T06:12:12;11.10;95.50
70947;DHT22;58605;48.700;8.760;2023-04-24T06:14:40;11.00;94.80
70947;DHT22;58605;48.700;8.760;2023-04-24T06:17:06;11.00;94.90
70947;DHT22;58605;48.700;8.760;2023-04-24T06:19:32;11.00;94.90
70947;DHT22;58605;48.700;8.760;2023-04-24T06:21:58;11.00;95.00
70947;DHT22;58605;48.700;8.760;2023-04-24T06:24:27;11.00;94.80
70947;DHT22;58605;48.700;8.760;2023-04-24T06:26:53;11.00;95.40
70947;DHT22;58605;48.700;8.760;2023-04-24T06:29:19;11.10;98.40
70947;DHT22;58605;48.700;8.760;2023-04-24T06:31:47;11.20;97.00
70947;DHT22;58605;48.700;8.760;2023-04-24T06:34:13;11.30;96.50
70947;DHT22;58605;48.700;8.760;2023-04-24T06:36:39;11.40;96.80
70947;DHT22;58605;48.700;8.760;2023-04-24T06:39:07;11.40;95.60
70947;DHT22;58605;48.700;8.760;2023-04-24T06:41:33;11.40;95.10
70947;DHT22;58605;48.700;8.760;2023-04-24T06:43:59;11.30;97.80
70947;DHT22;58605;48.700;8.760;2023-04-24T06:46:25;11.40;95.60
70947;DHT22;58605;48.700;8.760;2023-04-24T06:48:54;11.30;95.20
70947;DHT22;58605;48.700;8.760;2023-04-24T06:51:23;11.30;94.40
70947;DHT22;58605;48.700;8.760;2023-04-24T06:53:50;11.30;95.00
70947;DHT22;58605;48.700;8.760;2023-04-24T06:56:17;11.20;94.10
70947;DHT22;58605;48.700;8.760;2023-04-24T06:58:43;11.10;94.50
70947;DHT22;58605;48.700;8.760;2023-04-24T07:01:10;11.10;94.00
70947;DHT22;58605;48.700;8.760;2023-04-24T07:03:36;11.20;95.20
70947;DHT22;58605;48.700;8.760;2023-04-24T07:06:03;11.20;93.90
70947;DHT22;58605;48.700;8.760;2023-04-24T07:08:29;11.20;96.00
70947;DHT22;58605;48.700;8.760;2023-04-24T07:10:59;11.30;93.90
70947;DHT22;58605;48.700;8.760;2023-04-24T07:13:26;11.30;94.60
70947;DHT22;58605;48.700;8.760;2023-04-24T07:15:53;11.20;93.10
70947;DHT22;58605;48.700;8.760;2023-04-24T07:18:20;11.30;92.80
70947;DHT22;58605;48.700;8.760;2023-04-24T07:20:46;11.20;91.30
70947;DHT22;58605;48.700;8.760;2023-04-24T07:23:14;11.20;91.40
70947;DHT22;58605;48.700;8.760;2023-04-24T07:25:40;11.20;89.70
70947;DHT22;58605;48.700;8.760;2023-04-24T07:28:06;11.00;88.60
70947;DHT22;58605;48.700;8.760;2023-04-24T07:30:32;11.00;90.80
70947;DHT22;58605;48.700;8.760;2023-04-24T07:32:58;10.90;90.90
70947;DHT22;58605;48.700;8.760;2023-04-24T07:35:25;10.90;92.00
70947;DHT22;58605;48.700;8.760;2023-04-24T07:37:51;11.00;92.40
70947;DHT22;58605;48.700;8.760;2023-04-24T07:40:19;11.10;92.40
70947;DHT22;58605;48.700;8.760;2023-04-24T07:42:45;11.20;91.00
70947;DHT22;58605;48.700;8.760;2023-04-24T07:45:11;11.10;91.30
70947;DHT22;58605;48.700;8.760;2023-04-24T07:47:37;11.10;90.40
70947;DHT22;58605;48.700;8.760;2023-04-24T07:50:06;11.10;90.00
70947;DHT22;58605;48.700;8.760;2023-04-24T07:52:32;11.00;85.70
70947;DHT22;58605;48.700;8.760;2023-04-24T07:54:58;10.90;88.60
70947;DHT22;58605;48.700;8.760;2023-04-24T07:57:27;11.00;90.40
70947;DHT22;58605;48.700;8.760;2023-04-24T07:59:53;11.00;87.80
70947;DHT22;58605;48.700;8.760;2023-04-24T08:02:19;11.10;90.10
70947;DHT22;58605;48.700;8.760;2023-04-24T08:04:45;11.20;89.00
70947;DHT22;58605;48.700;8.760;2023-04-24T08:07:11;11.10;88.10
70947;DHT22;58605;48.700;8.760;2023-04-24T08:09:38;11.10;89.30
70947;DHT22;58605;48.700;8.760;2023-04-24T08:12:04;11.10;90.40
70947;DHT22;58605;48.700;8.760;2023-04-24T08:14:32;11.20;89.70
70947;DHT22;58605;48.700;8.760;2023-04-24T08:16:58;11.10;85.40
70947;DHT22;58605;48.700;8.760;2023-04-24T08:19:26;11.10;89.90
70947;DHT22;58605;48.700;8.760;2023-04-24T08:21:52;11.20;88.80
70947;DHT22;58605;48.700;8.760;2023-04-24T08:24:18;11.20;85.90
70947;DHT22;58605;48.700;8.760;2023-04-24T08:26:44;11.10;85.10
70947;DHT22;58605;48.700;8.760;2023-04-24T08:29:10;11.10;87.50
70947;DHT22;58605;48.700;8.760;2023-04-24T08:31:37;11.20;86.90
70947;DHT22;58605;48.700;8.760;2023-04-24T08:34:03;11.20;89.00
70947;DHT22;58605;48.700;8.760;2023-04-24T08:36:29;11.20;87.80
70947;DHT22;58605;48.700;8.760;2023-04-24T08:38:56;11.20;89.30
70947;DHT22;58605;48.700;8.760;2023-04-24T08:41:22;11.30;86.50
70947;DHT22;58605;48.700;8.760;2023-04-24T08:43:52;11.20;87.00
70947;DHT22;58605;48.700;8.760;2023-04-24T08:46:18;11.20;86.40
70947;DHT22;58605;48.700;8.760;2023-04-24T08:48:46;11.10;89.10
70947;DHT22;58605;48.700;8.760;2023-04-24T08:51:13;11.10;86.00
70947;DHT22;58605;48.700;8.760;2023-04-24T08:53:39;11.00;84.40
70947;DHT22;58605;48.700;8.760;2023-04-24T08:56:06;10.90;86.20
70947;DHT22;58605;48.700;8.760;2023-04-24T08:58:33;10.90;83.90
70947;DHT22;58605;48.700;8.760;2023-04-24T09:00:59;10.80;86.40
70947;DHT22;58605;48.700;8.760;2023-04-24T09:03:27;10.90;86.70
70947;DHT22;58605;48.700;8.760;2023-04-24T09:05:55;10.90;84.20
70947;DHT22;58605;48.700;8.760;2023-04-24T09:08:25;10.90;84.30
70947;DHT22;58605;48.700;8.760;2023-04-24T09:10:51;11.00;84.20
70947;DHT22;58605;48.700;8.760;2023-04-24T09:13:18;11.10;82.30
70947;DHT22;58605;48.700;8.760;2023-04-24T09:15:45;11.20;83.90
70947;DHT22;58605;48.700;8.760;2023-04-24T09:18:11;11.20;83.30
70947;DHT22;58605;48.700;8.760;2023-04-24T09:21:00;11.20;83.00
70947;DHT22;58605;48.700;8.760;2023-04-24T09:23:27;11.30;84.80
70947;DHT22;58605;48.700;8.760;2023-04-24T09:25:55;11.30;83.40
70947;DHT22;58605;48.700;8.760;2023-04-24T09:28:25;11.30;82.50
70947;DHT22;58605;48.700;8.760;2023-04-24T09:31:03;11.30;82.70
70947;DHT22;58605;48.700;8.760;2023-04-24T09:33:29;11.30;81.60
70947;DHT22;58605;48.700;8.760;2023-04-24T09:35:55;11.30;80.60
70947;DHT22;58605;48.700;8.760;2023-04-24T09:38:30;11.20;82.00
70947;DHT22;58605;48.700;8.760;2023-04-24T09:40:59;11.20;81.90
70947;DHT22;58605;48.700;8.760;2023-04-24T09:43:27;11.30;79.80
70947;DHT22;58605;48.700;8.760;2023-04-24T09:45:55;11.20;82.30
70947;DHT22;58605;48.700;8.760;2023-04-24T09:48:30;11.30;79.80
70947;DHT22;58605;48.700;8.760;2023-04-24T09:50:56;11.20;80.90
70947;DHT22;58605;48.700;8.760;2023-04-24T09:53:26;11.10;78.70
70947;DHT22;58605;48.700;8.760;2023-04-24T09:55:52;11.20;82.30
70947;DHT22;58605;48.700;8.760;2023-04-24T09:58:21;11.30;80.10
70947;DHT22;58605;48.700;8.760;2023-04-24T10:00:50;11.30;82.60
70947;DHT22;58605;48.700;8.760;2023-04-24T10:03:18;11.30;81.70
70947;DHT22;58605;48.700;8.760;2023-04-24T10:05:46;11.40;82.90
70947;DHT22;58605;48.700;8.760;2023-04-24T10:08:13;11.40;79.90
70947;DHT22;58605;48.700;8.760;2023-04-24T10:10:42;11.40;79.20
70947;DHT22;58605;48.700;8.760;2023-04-24T10:13:09;11.40;79.10
70947;DHT22;58605;48.700;8.760;2023-04-24T10:15:36;11.40;82.00
70947;DHT22;58605;48.700;8.760;2023-04-24T10:18:04;11.30;80.60
70947;DHT22;58605;48.700;8.760;2023-04-24T10:20:33;11.40;79.90
70947;DHT22;58605;48.700;8.760;2023-04-24T10:23:00;11.50;78.90
70947;DHT22;58605;48.700;8.760;2023-04-24T10:25:27;11.60;78.60
70947;DHT22;58605;48.700;8.760;2023-04-24T10:27:57;11.50;82.70
70947;DHT22;58605;48.700;8.760;2023-04-24T10:30:27;11.60;79.50
70947;DHT22;58605;48.700;8.760;2023-04-24T10:32:53;11.60;80.50
70947;DHT22;58605;48.700;8.760;2023-04-24T10:35:20;11.60;80.20
70947;DHT22;58605;48.700;8.760;2023-04-24T10:37:52;11.60;80.70
70947;DHT22;58605;48.700;8.760;2023-04-24T10:40:26;11.50;81.90
70947;DHT22;58605;48.700;8.760;2023-04-24T10:42:54;11.40;80.20
70947;DHT22;58605;48.700;8.760;2023-04-24T10:45:29;11.40;81.50
70947;DHT22;58605;48.700;8.760;2023-04-24T10:47:59;11.30;80.00
70947;DHT22;58605;48.700;8.760;2023-04-24T10:50:44;11.30;79.90
70947;DHT22;58605;48.700;8.760;2023-04-24T10:53:13;11.30;81.20
70947;DHT22;58605;48.700;8.760;2023-04-24T10:55:42;11.30;80.60
70947;DHT22;58605;48.700;8.760;2023-04-24T10:58:10;11.20;79.80
70947;DHT22;58605;48.700;8.760;2023-04-24T11:00:38;11.20;80.00
70947;DHT22;58605;48.700;8.760;2023-04-24T11:03:05;11.20;80.50
70947;DHT22;58605;48.700;8.760;2023-04-24T11:05:55;11.20;79.90
70947;DHT22;58605;48.700;8.760;2023-04-24T11:08:37;11.10;81.10
70947;DHT22;58605;48.700;8.760;2023-04-24T11:11:08;10.90;79.00
70947;DHT22;58605;48.700;8.760;2023-04-24T11:14:07;11.00;81.30
70947;DHT22;58605;48.700;8.760;2023-04-24T11:16:35;11.00;81.30
70947;DHT22;58605;48.700;8.760;2023-04-24T11:19:05;11.10;81.00
70947;DHT22;58605;48.700;8.760;2023-04-24T11:21:38;11.10;80.80
70947;DHT22;58605;48.700;8.760;2023-04-24T11:27:11;11.10;82.40
70947;DHT22;58605;48.700;8.760;2023-04-24T11:29:45;11.20;79.90
70947;DHT22;58605;48.700;8.760;2023-04-24T11:32:19;11.30;78.00
70947;DHT22;58605;48.700;8.760;2023-04-24T11:34:49;11.30;78.80
70947;DHT22;58605;48.700;8.760;2023-04-24T11:37:15;11.20;81.50
70947;DHT22;58605;48.700;8.760;2023-04-24T11:39:42;11.20;79.50
70947;DHT22;58605;48.700;8.760;2023-04-24T11:42:09;11.30;79.30
70947;DHT22;58605;48.700;8.760;2023-04-24T11:44:35;11.30;77.90
70947;DHT22;58605;48.700;8.760;2023-04-24T11:47:06;11.30;77.90
70947;DHT22;58605;48.700;8.760;2023-04-24T11:49:33;11.20;77.80
70947;DHT22;58605;48.700;8.760;2023-04-24T11:52:00;11.20;78.30
70947;DHT22;58605;48.700;8.760;2023-04-24T11:54:27;11.30;76.00
70947;DHT22;58605;48.700;8.760;2023-04-24T11:56:53;11.40;76.40
70947;DHT22;58605;48.700;8.760;2023-04-24T11:59:19;11.40;76.10
70947;DHT22;58605;48.700;8.760;2023-04-24T12:01:45;11.40;77.20
70947;DHT22;58605;48.700;8.760;2023-04-24T12:04:13;11.30;81.10
70947;DHT22;58605;48.700;8.760;2023-04-24T12:06:40;11.30;81.30
70947;DHT22;58605;48.700;8.760;2023-04-24T12:09:06;11.30;79.60
70947;DHT22;58605;48.700;8.760;2023-04-24T12:11:34;11.30;78.00
70947;DHT22;58605;48.700;8.760;2023-04-24T12:14:10;11.30;76.40
70947;DHT22;58605;48.700;8.760;2023-04-24T12:16:36;11.20;78.60
70947;DHT22;58605;48.700;8.760;2023-04-24T12:19:02;11.20;81.40
70947;DHT22;58605;48.700;8.760;2023-04-24T12:21:30;11.20;81.90
70947;DHT22;58605;48.700;8.760;2023-04-24T12:23:57;11.30;81.10
70947;DHT22;58605;48.700;8.760;2023-04-24T12:26:23;11.30;79.80
70947;DHT22;58605;48.700;8.760;2023-04-24T12:28:50;11.30;81.20
70947;DHT22;58605;48.700;8.760;2023-04-24T12:31:16;11.30;81.30
70947;DHT22;58605;48.700;8.760;2023-04-24T12:33:42;11.40;80.40
70947;DHT22;58605;48.700;8.760;2023-04-24T12:36:10;11.20;79.80
70947;DHT22;58605;48.700;8.760;2023-04-24T12:38:39;11.30;82.50
70947;DHT22;58605;48.700;8.760;2023-04-24T12:41:07;11.20;82.40
70947;DHT22;58605;48.700;8.760;2023-04-24T12:43:33;11.20;80.60
70947;DHT22;58605;48.700;8.760;2023-04-24T12:45:59;11.10;82.40
70947;DHT22;58605;48.700;8.760;2023-04-24T12:48:26;11.20;81.20
70947;DHT22;58605;48.700;8.760;2023-04-24T12:50:52;11.10;81.50
70947;DHT22;58605;48.700;8.760;2023-04-24T12:53:18;11.10;81.50
70947;DHT22;58605;48.700;8.760;2023-04-24T12:55:45;11.20;81.50
70947;DHT22;58605;48.700;8.760;2023-04-24T12:58:13;11.00;80.80
70947;DHT22;58605;48.700;8.760;2023-04-24T13:00:39;10.90;81.60
70947;DHT22;58605;48.700;8.760;2023-04-24T13:03:05;11.00;81.90
70947;DHT22;58605;48.700;8.760;2023-04-24T13:05:31;11.00;82.50
70947;DHT22;58605;48.700;8.760;2023-04-24T13:07:57;10.90;83.50
70947;DHT22;58605;48.700;8.760;2023-04-24T13:10:23;11.00;82.30
70947;DHT22;58605;48.700;8.760;2023-04-24T13:12:50;11.00;83.20
70947;DHT22;58605;48.700;8.760;2023-04-24T13:15:16;11.00;83.10
70947;DHT22;58605;48.700;8.760;2023-04-24T13:17:42;11.00;82.60
70947;DHT22;58605;48.700;8.760;2023-04-24T13:20:09;11.00;84.00
70947;DHT22;58605;48.700;8.760;2023-04-24T13:22:35;10.90;83.20
70947;DHT22;58605;48.700;8.760;2023-04-24T13:25:02;10.90;84.40
70947;DHT22;58605;48.700;8.760;2023-04-24T13:27:28;11.00;85.10
70947;DHT22;58605;48.700;8.760;2023-04-24T13:29:56;11.10;85.20
70947;DHT22;58605;48.700;8.760;2023-04-24T13:32:21;11.10;83.70
70947;DHT22;58605;48.700;8.760;2023-04-24T13:34:48;11.30;83.30
70947;DHT22;58605;48.700;8.760;2023-04-24T13:37:14;11.30;81.90
70947;DHT22;58605;48.700;8.760;2023-04-24T13:39:40;11.30;82.20
70947;DHT22;58605;48.700;8.760;2023-04-24T13:42:07;11.30;81.30
70947;DHT22;58605;48.700;8.760;2023-04-24T13:44:33;11.30;82.10
70947;DHT22;58605;48.700;8.760;2023-04-24T13:47:00;11.30;82.30
70947;DHT22;58605;48.700;8.760;2023-04-24T13:49:27;11.10;82.80
70947;DHT22;58605;48.700;8.760;2023-04-24T13:51:53;11.20;84.70
70947;DHT22;58605;48.700;8.760;2023-04-24T13:54:19;10.90;85.70
70947;DHT22;58605;48.700;8.760;2023-04-24T13:56:45;10.80;86.80
70947;DHT22;58605;48.700;8.760;2023-04-24T13:59:12;10.90;88.50
70947;DHT22;58605;48.700;8.760;2023-04-24T14:01:38;10.90;90.00
70947;DHT22;58605;48.700;8.760;2023-04-24T14:04:06;10.90;88.50
70947;DHT22;58605;48.700;8.760;2023-04-24T14:06:32;11.10;90.30
70947;DHT22;58605;48.700;8.760;2023-04-24T14:08:58;11.10;88.40
70947;DHT22;58605;48.700;8.760;2023-04-24T14:11:24;11.20;88.80
70947;DHT22;58605;48.700;8.760;2023-04-24T14:13:50;11.30;88.60
70947;DHT22;58605;48.700;8.760;2023-04-24T14:16:16;11.40;89.40
70947;DHT22;58605;48.700;8.760;2023-04-24T14:18:42;11.50;90.20
70947;DHT22;58605;48.700;8.760;2023-04-24T14:21:09;11.70;88.80
70947;DHT22;58605;48.700;8.760;2023-04-24T14:23:36;11.70;83.20
70947;DHT22;58605;48.700;8.760;2023-04-24T14:26:03;11.50;88.10
70947;DHT22;58605;48.700;8.760;2023-04-24T14:28:29;11.40;86.40
70947;DHT22;58605;48.700;8.760;2023-04-24T14:30:55;11.40;87.20
70947;DHT22;58605;48.700;8.760;2023-04-24T14:33:21;11.40;87.10
70947;DHT22;58605;48.700;8.760;2023-04-24T14:35:47;11.40;85.80
70947;DHT22;58605;48.700;8.760;2023-04-24T14:38:15;11.50;83.90
70947;DHT22;58605;48.700;8.760;2023-04-24T14:40:41;11.40;85.30
70947;DHT22;58605;48.700;8.760;2023-04-24T14:43:07;11.50;88.10
70947;DHT22;58605;48.700;8.760;2023-04-24T14:45:33;11.60;87.50
70947;DHT22;58605;48.700;8.760;2023-04-24T14:47:59;11.50;86.30
70947;DHT22;58605;48.700;8.760;2023-04-24T14:50:25;11.50;85.50
70947;DHT22;58605;48.700;8.760;2023-04-24T14:52:54;11.50;82.90
70947;DHT22;58605;48.700;8.760;2023-04-24T14:55:22;11.50;84.00
70947;DHT22;58605;48.700;8.760;2023-04-24T14:57:49;11.70;80.50
70947;DHT22;58605;48.700;8.760;2023-04-24T15:00:16;11.80;78.90
70947;DHT22;58605;48.700;8.760;2023-04-24T15:02:43;11.90;78.30
70947;DHT22;58605;48.700;8.760;2023-04-24T15:05:10;12.00;78.80
70947;DHT22;58605;48.700;8.760;2023-04-24T15:07:37;12.00;76.80
70947;DHT22;58605;48.700;8.760;2023-04-24T15:10:04;12.00;76.70
70947;DHT22;58605;48.700;8.760;2023-04-24T15:12:32;12.00;76.90
70947;DHT22;58605;48.700;8.760;2023-04-24T15:14:58;12.00;75.20
70947;DHT22;58605;48.700;8.760;2023-04-24T15:17:24;12.00;76.80
70947;DHT22;58605;48.700;8.760;2023-04-24T15:19:50;12.10;76.20
70947;DHT22;58605;48.700;8.760;2023-04-24T15:22:16;11.90;75.40
70947;DHT22;58605;48.700;8.760;2023-04-24T15:24:42;12.00;76.80
70947;DHT22;58605;48.700;8.760;2023-04-24T15:27:09;11.80;76.50
70947;DHT22;58605;48.700;8.760;2023-04-24T15:29:43;11.80;76.30
70947;DHT22;58605;48.700;8.760;2023-04-24T15:32:10;12.00;75.60
70947;DHT22;58605;48.700;8.760;2023-04-24T15:34:36;11.90;78.00